Country Club Plaza, Oregon
Current Conditions -  °F | °C
As of 4:10 AM on Sunday 21 Dec 2014 (Local Time) from KEUG Reporting Station
Light Rain Light Rain  
Wind Chill: 56°   Ceiling: 1500
Heat Index: 56°   Visibility: 10mi
Dew Point: 54°   Wind: 8mph
Humidity: 93%   Direction: 160°SSE
Pressure: 29.98"   Gusts: NA
Location:  44.0685°N, 123.082°W
Report Text: KEUG 211210Z AUTO 16007KT 10SM -RA BKN015 BKN026 OVC034 13/12 A2998 RMK AO2 P0001 T01330122
Loading
Personal Weather Stations






























Interactive Weather Map New forecast layout! Learn more

10-Day Weather Forecast

Advertisements
Track Severe Weather on mobile